createdAt,value
2022-11-13T00:00:37.071Z,15.47
2022-11-13T00:05:36.304Z,15.89
2022-11-13T00:10:35.505Z,15.82
2022-11-13T00:15:35.697Z,15.72
2022-11-13T00:20:35.869Z,15.32
2022-11-13T00:25:34.052Z,15.44
2022-11-13T00:30:32.293Z,15.27
2022-11-13T00:35:31.505Z,15.92
2022-11-13T00:40:30.689Z,27.74
2022-11-13T00:45:29.887Z,28.59
2022-11-13T00:50:30.057Z,28.46
2022-11-13T00:55:28.230Z,28.33
2022-11-13T01:00:27.404Z,28.06
2022-11-13T01:05:26.591Z,27.92
2022-11-13T01:10:25.789Z,27.75
2022-11-13T01:15:24.999Z,27.57
2022-11-13T01:20:25.183Z,27.31
2022-11-13T01:25:23.349Z,27.18
2022-11-13T01:30:24.590Z,26.89
2022-11-13T01:35:21.891Z,26.67
2022-11-13T01:40:23.253Z,26.44
2022-11-13T01:45:22.540Z,26.17
2022-11-13T01:50:19.858Z,25.91
2022-11-13T01:55:19.141Z,25.69
2022-11-13T02:00:19.442Z,25.45
2022-11-13T02:05:17.739Z,25.24
2022-11-13T02:10:18.037Z,24.99
2022-11-13T02:15:17.345Z,24.80
2022-11-13T02:20:15.669Z,24.62
2022-11-13T02:25:15.833Z,24.40
2022-11-13T02:30:16.042Z,24.22
2022-11-13T02:35:13.290Z,24.05
2022-11-13T02:40:14.614Z,23.88
2022-11-13T02:45:11.936Z,23.75
2022-11-13T02:50:12.036Z,23.60
2022-11-13T02:55:10.345Z,23.50
2022-11-13T03:00:13.804Z,23.35
2022-11-13T03:05:12.921Z,23.25
2022-11-13T03:10:09.104Z,23.15
2022-11-13T03:15:07.408Z,23.04
2022-11-13T03:20:06.705Z,22.95
2022-11-13T03:25:10.151Z,22.86
2022-11-13T03:30:05.256Z,22.75
2022-11-13T03:35:05.551Z,22.65
2022-11-13T03:40:03.835Z,22.54
2022-11-13T03:45:03.128Z,22.45
2022-11-13T03:50:03.396Z,22.37
2022-11-13T03:55:02.668Z,22.30
2022-11-13T04:00:01.966Z,22.22
2022-11-13T04:05:00.276Z,22.15
2022-11-13T04:09:59.584Z,22.07
2022-11-13T04:14:58.912Z,22.00
2022-11-13T04:19:58.223Z,21.94
2022-11-13T04:24:59.531Z,21.86
2022-11-13T04:29:56.817Z,21.82
2022-11-13T04:34:56.146Z,21.74
2022-11-13T04:39:55.449Z,21.69
2022-11-13T04:44:54.745Z,21.62
2022-11-13T04:49:54.144Z,21.56
2022-11-13T04:54:53.262Z,21.52
2022-11-13T04:59:54.601Z,21.46
2022-11-13T05:04:51.907Z,21.42
2022-11-13T05:09:52.228Z,21.37
2022-11-13T05:14:50.538Z,21.34
2022-11-13T05:19:50.853Z,21.31
2022-11-13T05:24:48.132Z,21.27
2022-11-13T05:29:49.440Z,21.21
2022-11-13T05:34:49.715Z,21.16
2022-11-13T05:39:48.040Z,21.12
2022-11-13T05:44:48.120Z,21.09
2022-11-13T05:49:45.418Z,21.06
2022-11-13T05:54:46.742Z,21.03
2022-11-13T05:59:44.027Z,20.98
2022-11-13T06:04:43.336Z,20.97
2022-11-13T06:09:42.653Z,20.91
2022-11-13T06:14:42.964Z,20.88
2022-11-13T06:19:41.266Z,20.84
2022-11-13T06:24:41.570Z,20.80
2022-11-13T06:29:40.890Z,20.79
2022-11-13T06:34:40.198Z,20.77
2022-11-13T06:39:38.474Z,20.72
2022-11-13T06:44:37.756Z,20.70
2022-11-13T06:49:37.022Z,20.66
2022-11-13T06:54:36.300Z,20.62
2022-11-13T06:59:35.585Z,20.61
2022-11-13T07:04:35.860Z,20.58
2022-11-13T07:09:35.126Z,20.55
2022-11-13T07:14:34.405Z,20.54
2022-11-13T07:19:32.715Z,20.51
2022-11-13T07:24:33.055Z,20.48
2022-11-13T07:29:31.233Z,20.47
2022-11-13T07:34:32.379Z,20.43
2022-11-13T07:39:30.478Z,20.41
2022-11-13T07:44:52.945Z,20.39
2022-11-13T07:49:27.999Z,20.38
2022-11-13T07:54:27.297Z,20.35
2022-11-13T07:59:27.577Z,20.32
2022-11-13T08:04:26.898Z,20.31
2022-11-13T08:09:26.292Z,20.29
2022-11-13T08:14:24.391Z,20.26
2022-11-13T08:19:23.691Z,20.24
2022-11-13T08:24:23.977Z,20.21
2022-11-13T08:29:22.274Z,20.20
2022-11-13T08:34:22.585Z,20.21
2022-11-13T08:39:21.895Z,20.18
2022-11-13T08:44:20.032Z,20.16
2022-11-13T08:49:20.331Z,20.16
2022-11-13T08:54:19.617Z,20.17
2022-11-13T08:59:18.952Z,20.17
2022-11-13T09:04:17.096Z,20.16
2022-11-13T09:09:16.239Z,21.16
2022-11-13T09:14:16.386Z,25.46
2022-11-13T09:19:16.506Z,27.60
2022-11-13T09:24:15.861Z,28.46
2022-11-13T09:29:14.190Z,29.39
2022-11-13T09:34:13.482Z,29.37
2022-11-13T09:39:12.839Z,29.09
2022-11-13T09:44:11.941Z,29.46
2022-11-13T09:49:10.257Z,29.87
2022-11-13T09:54:09.568Z,30.11
2022-11-13T09:59:09.874Z,30.31
2022-11-13T10:04:14.057Z,30.64
2022-11-13T10:09:08.486Z,30.70
2022-11-13T10:14:07.754Z,30.82
2022-11-13T10:19:07.047Z,30.82
2022-11-13T10:24:06.602Z,31.25
2022-11-13T10:29:05.642Z,30.54
2022-11-13T10:34:03.792Z,29.58
2022-11-13T10:39:04.123Z,29.39
2022-11-13T10:44:02.431Z,28.95
2022-11-13T10:49:01.729Z,28.88
2022-11-13T10:54:01.049Z,28.96
2022-11-13T10:59:00.381Z,28.61
2022-11-13T11:03:59.568Z,28.31
2022-11-13T11:08:59.755Z,28.51
2022-11-13T11:13:57.934Z,28.31
2022-11-13T11:18:57.154Z,28.62
2022-11-13T11:23:56.531Z,29.00
2022-11-13T11:28:55.558Z,28.36
2022-11-13T11:33:54.877Z,28.83
2022-11-13T11:38:54.064Z,28.49
2022-11-13T11:43:53.253Z,28.15
2022-11-13T11:48:52.425Z,27.37
2022-11-13T11:53:51.589Z,27.29
2022-11-13T11:58:51.833Z,26.99
2022-11-13T12:03:49.956Z,26.97
2022-11-13T12:08:49.156Z,27.97
2022-11-13T12:13:49.358Z,27.72
2022-11-13T12:18:47.526Z,28.03
2022-11-13T12:23:46.795Z,29.12
2022-11-13T12:28:45.978Z,28.78
2022-11-13T12:33:45.226Z,29.60
2022-11-13T12:38:44.385Z,28.88
2022-11-13T12:43:44.563Z,28.81
2022-11-13T12:48:42.726Z,29.51
2022-11-13T12:53:41.883Z,28.89
2022-11-13T12:58:43.046Z,29.09
2022-11-13T13:03:40.221Z,29.42
2022-11-13T13:08:39.416Z,29.09
2022-11-13T13:13:37.597Z,29.11
2022-11-13T13:18:37.787Z,29.83
2022-11-13T13:23:37.978Z,29.21
2022-11-13T13:28:36.150Z,29.86
2022-11-13T13:33:36.366Z,29.98
2022-11-13T13:38:35.552Z,29.52
2022-11-13T13:43:34.715Z,30.07
2022-11-13T13:48:35.893Z,30.55
2022-11-13T13:53:32.138Z,30.77
2022-11-13T13:58:32.655Z,30.29
2022-11-13T14:03:30.483Z,29.86
2022-11-13T14:08:29.994Z,29.18
2022-11-13T14:13:28.933Z,30.08
2022-11-13T14:18:29.633Z,29.58
2022-11-13T14:23:27.284Z,28.93
2022-11-13T14:28:27.741Z,28.58
2022-11-13T14:33:25.998Z,28.43
2022-11-13T14:38:24.973Z,28.83
2022-11-13T14:43:24.176Z,28.73
2022-11-13T14:48:23.378Z,28.92
2022-11-13T14:53:22.567Z,28.88
2022-11-13T14:58:21.766Z,28.70
2022-11-13T15:03:21.035Z,29.97
2022-11-13T15:08:21.334Z,29.34
2022-11-13T15:13:19.798Z,29.67
2022-11-13T15:18:18.835Z,29.34
2022-11-13T15:23:18.204Z,29.27
2022-11-13T15:28:18.388Z,29.16
2022-11-13T15:33:17.796Z,28.90
2022-11-13T15:38:17.787Z,28.44
2022-11-13T15:43:15.406Z,28.22
2022-11-13T15:48:14.689Z,28.43
2022-11-13T15:53:14.681Z,28.71
2022-11-13T15:58:13.046Z,28.39
2022-11-13T16:03:12.007Z,27.85
2022-11-13T16:08:11.682Z,28.36
2022-11-13T16:13:11.811Z,28.59
2022-11-13T16:18:11.209Z,28.46
2022-11-13T16:23:10.248Z,28.74
2022-11-13T16:28:08.696Z,28.19
2022-11-13T16:33:07.660Z,27.93
2022-11-13T16:38:09.118Z,27.57
2022-11-13T16:43:07.523Z,27.97
2022-11-13T16:48:06.569Z,27.90
2022-11-13T16:53:05.033Z,29.06
2022-11-13T16:58:05.257Z,29.31
2022-11-13T17:03:04.356Z,28.52
2022-11-13T17:08:02.795Z,29.23
2022-11-13T17:13:02.930Z,28.92
2022-11-13T17:18:01.209Z,27.06
2022-11-13T17:23:00.667Z,25.10
2022-11-13T17:27:59.999Z,21.67
2022-11-13T17:32:59.174Z,18.58
2022-11-13T17:38:09.633Z,17.79
2022-11-13T17:42:57.252Z,17.38
2022-11-13T17:47:56.714Z,16.89
2022-11-13T17:52:56.022Z,17.12
2022-11-13T17:57:55.378Z,17.21
2022-11-13T18:02:55.556Z,16.76
2022-11-13T18:07:53.392Z,16.64
2022-11-13T18:12:52.901Z,16.48
2022-11-13T18:17:51.962Z,16.27
2022-11-13T18:22:51.281Z,15.93
2022-11-13T18:27:50.636Z,16.39
2022-11-13T18:32:54.169Z,16.21
2022-11-13T18:37:49.008Z,17.25
2022-11-13T18:42:49.056Z,16.15
2022-11-13T18:47:47.638Z,16.11
2022-11-13T18:52:47.843Z,16.02
2022-11-13T18:57:46.018Z,16.11
2022-11-13T19:02:45.085Z,15.36
2022-11-13T19:07:45.144Z,16.27
2022-11-13T19:12:43.254Z,16.89
2022-11-13T19:17:42.905Z,19.61
2022-11-13T19:22:44.843Z,16.89
2022-11-13T19:27:41.552Z,18.75
2022-11-13T19:32:40.866Z,16.94
2022-11-13T19:37:40.232Z,17.12
2022-11-13T19:42:41.965Z,16.43
2022-11-13T19:47:39.645Z,16.64
2022-11-13T19:52:38.402Z,20.43
2022-11-13T19:57:38.297Z,18.11
2022-11-13T20:02:36.488Z,17.04
2022-11-13T20:07:35.636Z,16.91
2022-11-13T20:12:38.876Z,16.20
2022-11-13T20:17:34.322Z,16.34
2022-11-13T20:22:33.439Z,16.15
2022-11-13T20:27:37.163Z,15.78
2022-11-13T20:32:32.101Z,16.17
2022-11-13T20:37:31.378Z,15.94
2022-11-13T20:42:33.682Z,15.75
2022-11-13T20:47:29.702Z,16.04
2022-11-13T20:52:29.814Z,17.37
2022-11-13T20:57:30.118Z,16.35
2022-11-13T21:02:28.545Z,16.88
2022-11-13T21:07:26.804Z,17.25
2022-11-13T21:12:26.147Z,15.20
2022-11-13T21:17:25.378Z,15.96
2022-11-13T21:22:24.751Z,16.12
2022-11-13T21:27:23.759Z,15.49
2022-11-13T21:32:23.095Z,15.56
2022-11-13T21:37:22.046Z,15.36
2022-11-13T21:42:21.374Z,15.28
2022-11-13T21:47:20.503Z,15.17
2022-11-13T21:52:19.877Z,15.64
2022-11-13T21:57:19.065Z,17.23
2022-11-13T22:02:18.247Z,15.84
2022-11-13T22:07:17.503Z,15.59
2022-11-13T22:12:16.738Z,15.82
2022-11-13T22:17:17.018Z,16.00
2022-11-13T22:22:15.169Z,15.84
2022-11-13T22:27:14.350Z,15.68
2022-11-13T22:32:13.465Z,15.60
2022-11-13T22:37:14.885Z,15.23
2022-11-13T22:42:12.006Z,15.01
2022-11-13T22:47:11.384Z,15.23
2022-11-13T22:52:10.504Z,26.29
2022-11-13T22:57:09.811Z,27.75
2022-11-13T23:02:10.120Z,27.63
2022-11-13T23:07:08.499Z,27.55
2022-11-13T23:12:07.608Z,29.04
2022-11-13T23:17:06.937Z,29.26
2022-11-13T23:22:06.333Z,28.24
2022-11-13T23:27:05.225Z,30.58
2022-11-13T23:32:04.542Z,30.19
2022-11-13T23:37:03.894Z,29.43
2022-11-13T23:42:03.056Z,28.78
2022-11-13T23:47:04.193Z,28.46
2022-11-13T23:52:01.553Z,27.97
2022-11-13T23:57:00.708Z,28.73
